MMU weather

Morristown Municipal Airport
Morristown, New Jersey, United States

Public forecast

Using degrees Fahrenheit for public forecast. Weather courtesy of forecast.io.

METAR (pilot weather report)

Retrieved 2019/09/17 05:35 UTC (0 seconds ago):

KMMU 170535Z AUTO 00000KT 10SM BKN036 BKN041 16/16 A3008 RMK AO2

TAF (pilot weather forecast)

Forecast is more than 12 hours old.

Closest forecast is Newark Liberty International Airport, 12.9 nm (23.9 km) ESE. Retrieved 2019/09/16 00:22 UTC (1 day ago):

TAF KEWR 162320Z 1700/1806 VRB03KT P6SM FEW040 BKN070 FM170300 02007KT P6SM SKC FM171300 02009KT P6SM SKC FM171700 03010G16KT P6SM SKC FM172300 03006KT P6SM SKC